Fossil, OR (97830)

1:15 AM PST on February 06, 2016 (GMT -0800)
High School | | Change Station
CLOSE
Current Station
Personal Weather Station
Location: Fossil, OR
Elevation: 2708 ft
Nearby Weather Stations

Elev 2708 ft 45.00 °N, 120.21 °W | Updated 10 seconds ago

Mostly Cloudy
Mostly Cloudy
40.0 °F
Feels Like 40 °F
N
0.0
Wind Variable Wind from NW
Gusts 0.0 mph

Today
High -- | Low -- °F
--% Chance of Precip.
Yesterday
High -- | Low -- °F
Precip. -- in
Pressure 30.27 in
Visibility 10.0 miles
Clouds Overcast 7000 ft
Windchill 40 °F
Dew Point 34 °F
Humidity 78%
Rainfall 0.00 in
Snow Depth Not available.
7:14 AM 5:14 PM
Waning Crescent, 6% visible
METAR KPDT 060853Z AUTO 15005KT 10SM OVC070 07/02 A3028 RMK AO2 SLP249 T00720022 51039
Pressure 30.27 in
Visibility 10.0 miles
Clouds Overcast 7000 ft
Windchill 40 °F
Dew Point 34 °F
Humidity 78%
Rainfall 0.00 in
Snow Depth Not available.
7:14 AM 5:14 PM
Waning Crescent, 6% visible
METAR KPDT 060853Z AUTO 15005KT 10SM OVC070 07/02 A3028 RMK AO2 SLP249 T00720022 51039

10-Day Weather Forecast

Almanac

Astronomy

Feb. 06, 2016 Rise Set
Actual Time
Civil Twilight
Nautical Twilight
Astronomical Twilight
Moon
Length of Visible Light
Length of Day
Tomorrow will be .
, % of the Moon is Illuminated

Today's Extremes

State Highs State Lows

Community

WunderPhotos

Upload Photos

1,890,933 photos uploaded!

WunderBlog® & News

Nearby

Air Quality

  Air Quality AQ Index Pollutant
Not available.

Snow Depth

Station Depth Elevation

Earthquake Activity

City Distance Mag. Time & Date
Minimum magnitude displayed is 2.5.

Coastal Water Temperatures

Place Temperature

Stations

Nearby Weather Stations

Station Location Temp. Windchill Dew Point Humidity Wind Precip. Elev Updated Type
                   

Watches & Warnings

There are currently no watches in effect.